createdAt,value
2016-11-19T00:00:01.915Z,22.91
2016-11-19T00:01:01.822Z,22.88
2016-11-19T00:02:02.964Z,22.88
2016-11-19T00:03:01.723Z,22.91
2016-11-19T00:04:01.639Z,22.85
2016-11-19T00:05:01.572Z,22.8
2016-11-19T00:06:01.514Z,22.85
2016-11-19T00:07:01.450Z,22.94
2016-11-19T00:08:01.395Z,22.91
2016-11-19T00:09:01.328Z,22.83
2016-11-19T00:10:01.266Z,22.9
2016-11-19T00:11:01.208Z,22.76
2016-11-19T00:12:01.151Z,22.98
2016-11-19T00:13:01.404Z,22.88
2016-11-19T00:14:01.226Z,22.93
2016-11-19T00:15:00.961Z,22.8
2016-11-19T00:16:00.898Z,22.8
2016-11-19T00:17:00.843Z,22.93
2016-11-19T00:18:00.774Z,22.91
2016-11-19T00:19:00.718Z,22.85
2016-11-19T00:20:00.655Z,22.83
2016-11-19T00:21:00.594Z,22.94
2016-11-19T00:22:00.532Z,22.8
2016-11-19T00:23:00.796Z,22.96
2016-11-19T00:24:00.406Z,22.91
2016-11-19T00:25:00.351Z,22.9
2016-11-19T00:26:00.306Z,22.91
2016-11-19T00:27:00.224Z,22.93
2016-11-19T00:28:00.164Z,22.91
2016-11-19T00:30:13.004Z,22.94
2016-11-19T00:31:12.937Z,22.94
2016-11-19T00:32:12.875Z,22.93
2016-11-19T00:33:12.817Z,22.93
2016-11-19T00:34:12.752Z,22.9
2016-11-19T00:35:12.992Z,22.84
2016-11-19T00:36:12.637Z,22.88
2016-11-19T00:37:12.567Z,22.91
2016-11-19T00:38:12.519Z,22.9
2016-11-19T00:39:12.444Z,22.84
2016-11-19T00:40:12.388Z,22.84
2016-11-19T00:41:25.064Z,22.88
2016-11-19T00:42:12.262Z,22.85
2016-11-19T00:43:12.198Z,22.9
2016-11-19T00:44:12.144Z,22.93
2016-11-19T00:45:12.076Z,22.83
2016-11-19T00:46:12.022Z,22.87
2016-11-19T00:47:11.964Z,22.91
2016-11-19T00:48:12.095Z,22.84
2016-11-19T00:49:11.832Z,22.8
2016-11-19T00:50:12.099Z,22.9
2016-11-19T00:51:11.708Z,22.93
2016-11-19T00:52:11.655Z,22.85
2016-11-19T00:53:11.598Z,22.93
2016-11-19T00:54:11.854Z,22.93
2016-11-19T00:55:11.469Z,22.78
2016-11-19T00:56:11.411Z,22.91
2016-11-19T00:57:11.346Z,22.91
2016-11-19T00:58:11.282Z,22.8
2016-11-19T00:59:11.544Z,22.83
2016-11-19T01:00:11.163Z,22.84
2016-11-19T01:01:11.097Z,22.88
2016-11-19T01:02:11.035Z,22.91
2016-11-19T01:03:10.977Z,22.88
2016-11-19T01:04:10.914Z,22.91
2016-11-19T01:05:10.855Z,22.93
2016-11-19T01:06:10.797Z,22.81
2016-11-19T01:07:10.733Z,22.78
2016-11-19T01:08:10.672Z,22.81
2016-11-19T01:09:10.609Z,22.93
2016-11-19T01:10:10.549Z,22.88
2016-11-19T01:11:10.486Z,22.85
2016-11-19T01:12:10.428Z,22.83
2016-11-19T01:13:10.362Z,22.76
2016-11-19T01:14:10.301Z,22.83
2016-11-19T01:15:10.238Z,22.83
2016-11-19T01:16:10.180Z,22.81
2016-11-19T01:17:10.119Z,22.8
2016-11-19T01:18:10.055Z,22.87
2016-11-19T01:19:09.996Z,22.91
2016-11-19T01:20:09.954Z,22.83
2016-11-19T01:21:09.870Z,22.81
2016-11-19T01:22:09.810Z,22.78
2016-11-19T01:23:09.751Z,22.81
2016-11-19T01:24:09.686Z,22.85
2016-11-19T01:25:09.630Z,22.83
2016-11-19T01:26:09.565Z,22.8
2016-11-19T01:27:09.502Z,22.91
2016-11-19T01:28:09.445Z,22.83
2016-11-19T01:29:09.380Z,22.81
2016-11-19T01:30:09.319Z,22.84
2016-11-19T01:31:09.260Z,22.8
2016-11-19T01:32:09.206Z,22.81
2016-11-19T01:33:09.457Z,22.8
2016-11-19T01:34:09.073Z,22.85
2016-11-19T01:35:09.018Z,22.81
2016-11-19T01:36:08.954Z,22.81
2016-11-19T01:37:08.888Z,22.85
2016-11-19T01:38:08.845Z,22.84
2016-11-19T01:39:08.769Z,22.87
2016-11-19T01:40:08.708Z,22.88
2016-11-19T01:41:08.648Z,22.84
2016-11-19T01:42:08.583Z,22.8
2016-11-19T01:43:08.521Z,22.81
2016-11-19T01:44:08.459Z,22.84
2016-11-19T01:45:08.398Z,22.81
2016-11-19T01:46:08.339Z,22.81
2016-11-19T01:47:08.290Z,22.8
2016-11-19T01:48:08.215Z,22.78
2016-11-19T01:49:08.155Z,22.75
2016-11-19T01:50:08.097Z,22.8
2016-11-19T01:51:08.032Z,22.81
2016-11-19T01:52:07.968Z,22.83
2016-11-19T01:53:07.910Z,22.83
2016-11-19T01:54:07.847Z,22.81
2016-11-19T01:55:07.788Z,22.84
2016-11-19T01:56:07.724Z,22.83
2016-11-19T01:57:07.663Z,22.78
2016-11-19T01:58:07.602Z,22.81
2016-11-19T01:59:07.569Z,22.81
2016-11-19T02:00:07.476Z,22.85
2016-11-19T02:01:07.419Z,22.85
2016-11-19T02:02:07.357Z,22.81
2016-11-19T02:03:07.295Z,22.88
2016-11-19T02:04:07.232Z,22.84
2016-11-19T02:05:07.173Z,22.84
2016-11-19T02:06:07.111Z,22.83
2016-11-19T02:07:07.048Z,22.8
2016-11-19T02:08:06.987Z,22.8
2016-11-19T02:09:06.930Z,22.84
2016-11-19T02:10:06.860Z,22.9
2016-11-19T02:11:07.127Z,22.85
2016-11-19T02:12:06.744Z,22.81
2016-11-19T02:13:06.677Z,22.8
2016-11-19T02:14:06.615Z,22.9
2016-11-19T02:15:06.560Z,22.81
2016-11-19T02:16:06.494Z,22.8
2016-11-19T02:17:06.430Z,22.85
2016-11-19T02:18:06.373Z,22.83
2016-11-19T02:19:06.629Z,22.76
2016-11-19T02:20:06.248Z,22.84
2016-11-19T02:21:06.188Z,22.75
2016-11-19T02:22:06.132Z,22.81
2016-11-19T02:23:06.061Z,22.87
2016-11-19T02:24:06.008Z,22.83
2016-11-19T02:25:05.940Z,22.8
2016-11-19T02:26:05.883Z,22.8
2016-11-19T02:27:05.819Z,22.8
2016-11-19T02:28:05.760Z,22.83
2016-11-19T02:29:05.695Z,22.83
2016-11-19T02:30:05.635Z,22.81
2016-11-19T02:31:05.574Z,22.85
2016-11-19T02:32:05.509Z,22.81
2016-11-19T02:33:05.453Z,22.83
2016-11-19T02:34:05.391Z,22.8
2016-11-19T02:35:05.329Z,22.8
2016-11-19T02:36:05.268Z,22.81
2016-11-19T02:37:05.209Z,22.85
2016-11-19T02:38:05.151Z,22.8
2016-11-19T02:39:05.101Z,22.8
2016-11-19T02:40:05.020Z,22.88
2016-11-19T02:41:04.961Z,22.81
2016-11-19T02:42:04.899Z,22.83
2016-11-19T02:43:04.843Z,22.84
2016-11-19T02:44:04.775Z,22.84
2016-11-19T02:45:04.710Z,22.83
2016-11-19T02:46:04.661Z,22.85
2016-11-19T02:47:04.599Z,22.87
2016-11-19T02:48:04.532Z,22.85
2016-11-19T02:49:04.468Z,22.87
2016-11-19T02:50:04.404Z,22.83
2016-11-19T02:51:04.349Z,22.78
2016-11-19T02:52:04.317Z,22.8
2016-11-19T02:53:04.224Z,22.81
2016-11-19T02:54:04.165Z,22.84
2016-11-19T02:55:04.112Z,22.83
2016-11-19T02:56:04.038Z,22.83
2016-11-19T02:57:03.981Z,22.85
2016-11-19T02:58:03.913Z,22.75
2016-11-19T02:59:03.854Z,22.83
2016-11-19T03:00:03.791Z,22.83
2016-11-19T03:01:03.730Z,22.81
2016-11-19T03:02:03.673Z,22.83
2016-11-19T03:03:03.612Z,22.76
2016-11-19T03:04:03.550Z,22.84
2016-11-19T03:05:03.485Z,22.81
2016-11-19T03:06:03.426Z,22.76
2016-11-19T03:07:03.363Z,22.75
2016-11-19T03:08:03.301Z,22.81
2016-11-19T03:09:03.237Z,22.83
2016-11-19T03:10:03.181Z,22.83
2016-11-19T03:11:03.116Z,22.83
2016-11-19T03:12:03.052Z,22.76
2016-11-19T03:13:02.997Z,22.84
2016-11-19T03:14:02.939Z,22.76
2016-11-19T03:15:02.883Z,22.78
2016-11-19T03:16:02.809Z,22.84
2016-11-19T03:17:02.749Z,22.85
2016-11-19T03:18:02.687Z,22.83
2016-11-19T03:19:02.623Z,22.83
2016-11-19T03:20:02.562Z,22.8
2016-11-19T03:21:02.503Z,22.8
2016-11-19T03:22:02.761Z,22.83
2016-11-19T03:23:02.375Z,22.8
2016-11-19T03:24:02.321Z,22.84
2016-11-19T03:25:02.257Z,22.8
2016-11-19T03:26:02.197Z,22.83
2016-11-19T03:27:02.129Z,22.83
2016-11-19T03:28:02.075Z,22.83
2016-11-19T03:29:02.007Z,22.81
2016-11-19T03:30:01.948Z,22.81
2016-11-19T03:31:01.890Z,22.75
2016-11-19T03:32:01.823Z,22.83
2016-11-19T03:33:01.766Z,22.83
2016-11-19T03:34:01.704Z,22.8
2016-11-19T03:35:01.645Z,22.76
2016-11-19T03:36:01.579Z,22.75
2016-11-19T03:37:01.522Z,22.8
2016-11-19T03:38:01.468Z,22.78
2016-11-19T03:39:01.396Z,22.8
2016-11-19T03:40:01.685Z,22.81
2016-11-19T03:41:01.278Z,22.76
2016-11-19T03:42:01.210Z,22.9
2016-11-19T03:43:01.150Z,22.75
2016-11-19T03:44:01.088Z,22.84
2016-11-19T03:45:01.028Z,22.76
2016-11-19T03:46:00.976Z,22.72
2016-11-19T03:47:00.903Z,22.81
2016-11-19T03:48:01.168Z,22.78
2016-11-19T03:49:00.785Z,22.83
2016-11-19T03:50:00.719Z,22.81
2016-11-19T03:51:00.660Z,22.8
2016-11-19T03:52:00.599Z,22.81
2016-11-19T03:53:00.533Z,22.76
2016-11-19T03:54:00.478Z,22.81
2016-11-19T03:55:00.417Z,22.7
2016-11-19T03:56:00.350Z,22.83
2016-11-19T03:57:00.293Z,22.76
2016-11-19T03:58:00.235Z,22.78
2016-11-19T03:59:00.168Z,22.81
2016-11-19T04:00:00.106Z,22.81
2016-11-19T04:01:00.047Z,22.75
2016-11-19T04:01:59.983Z,22.76
2016-11-19T04:02:59.918Z,22.9
2016-11-19T04:03:59.861Z,22.8
2016-11-19T04:04:59.796Z,22.83
2016-11-19T04:05:59.737Z,22.8
2016-11-19T04:06:59.674Z,22.76
2016-11-19T04:07:59.615Z,22.76
2016-11-19T04:08:59.559Z,22.84
2016-11-19T04:09:59.492Z,22.85
2016-11-19T04:10:59.429Z,22.75
2016-11-19T04:11:59.686Z,22.87
2016-11-19T04:12:59.313Z,22.8
2016-11-19T04:13:59.492Z,22.85
2016-11-19T04:14:59.181Z,22.76
2016-11-19T04:15:59.122Z,22.78
2016-11-19T04:16:59.061Z,22.76
2016-11-19T04:17:58.998Z,22.75
2016-11-19T04:18:59.153Z,22.76
2016-11-19T04:19:58.881Z,22.72
2016-11-19T04:20:58.811Z,22.8
2016-11-19T04:21:58.754Z,22.75
2016-11-19T04:22:58.694Z,22.76
2016-11-19T04:23:58.627Z,22.75
2016-11-19T04:24:58.574Z,22.84
2016-11-19T04:25:58.824Z,22.73
2016-11-19T04:26:58.451Z,22.75
2016-11-19T04:27:58.385Z,22.75
2016-11-19T04:28:58.323Z,22.8
2016-11-19T04:29:58.263Z,22.84
2016-11-19T04:30:58.207Z,22.8
2016-11-19T04:31:58.136Z,22.75
2016-11-19T04:32:58.073Z,22.84
2016-11-19T04:33:58.016Z,22.84
2016-11-19T04:34:57.956Z,22.75
2016-11-19T04:35:57.890Z,22.76
2016-11-19T04:36:57.830Z,22.76
2016-11-19T04:37:57.769Z,22.8
2016-11-19T04:38:57.711Z,22.75
2016-11-19T04:39:57.644Z,22.81
2016-11-19T04:40:57.586Z,22.84
2016-11-19T04:41:57.529Z,22.75
2016-11-19T04:42:57.465Z,22.84
2016-11-19T04:43:57.404Z,22.84
2016-11-19T04:44:57.342Z,22.75
2016-11-19T04:45:57.276Z,22.84
2016-11-19T04:46:57.217Z,22.87
2016-11-19T04:47:57.156Z,22.8
2016-11-19T04:48:57.094Z,22.81
2016-11-19T04:49:57.036Z,22.78
2016-11-19T04:50:56.969Z,22.72
2016-11-19T04:51:56.915Z,22.84
2016-11-19T04:52:56.853Z,22.76
2016-11-19T04:53:56.784Z,22.85
2016-11-19T04:54:56.728Z,22.84
2016-11-19T04:55:56.663Z,22.76
2016-11-19T04:56:56.603Z,22.75
2016-11-19T04:57:56.537Z,22.75
2016-11-19T04:58:56.481Z,22.8
2016-11-19T04:59:56.421Z,22.84
2016-11-19T05:00:56.360Z,22.81
2016-11-19T05:01:56.295Z,22.78
2016-11-19T05:02:56.231Z,22.75
2016-11-19T05:03:56.171Z,22.75
2016-11-19T05:04:56.112Z,22.84
2016-11-19T05:05:56.048Z,22.78
2016-11-19T05:06:55.985Z,22.84
2016-11-19T05:07:55.932Z,22.83
2016-11-19T05:08:55.863Z,22.72
2016-11-19T05:09:55.800Z,22.81
2016-11-19T05:10:55.741Z,22.76
2016-11-19T05:11:55.676Z,22.75
2016-11-19T05:12:55.621Z,22.75
2016-11-19T05:13:55.558Z,22.84
2016-11-19T05:14:55.492Z,22.7
2016-11-19T05:15:55.437Z,22.78
2016-11-19T05:16:55.375Z,22.73
2016-11-19T05:17:55.315Z,22.84
2016-11-19T05:18:55.251Z,22.75
2016-11-19T05:19:55.187Z,22.75
2016-11-19T05:20:55.127Z,22.75
2016-11-19T05:21:55.064Z,22.78
2016-11-19T05:22:55.007Z,22.78
2016-11-19T05:23:54.939Z,22.73
2016-11-19T05:24:54.884Z,22.8
2016-11-19T05:25:54.824Z,22.76
2016-11-19T05:26:54.756Z,22.84
2016-11-19T05:27:54.699Z,22.76
2016-11-19T05:28:54.637Z,22.73
2016-11-19T05:29:54.573Z,22.72
2016-11-19T05:30:54.514Z,22.7
2016-11-19T05:31:54.451Z,22.81
2016-11-19T05:32:54.424Z,22.72
2016-11-19T05:33:54.326Z,22.83
2016-11-19T05:34:54.265Z,22.8
2016-11-19T05:35:54.205Z,22.76
2016-11-19T05:36:54.148Z,22.8
2016-11-19T05:37:54.081Z,22.73
2016-11-19T05:38:54.017Z,22.76
2016-11-19T05:39:53.957Z,22.75
2016-11-19T05:40:53.894Z,22.84
2016-11-19T05:41:53.836Z,22.75
2016-11-19T05:42:53.768Z,22.76
2016-11-19T05:43:53.714Z,22.76
2016-11-19T05:44:53.648Z,22.84
2016-11-19T05:45:53.586Z,22.76
2016-11-19T05:46:53.526Z,22.81
2016-11-19T05:47:53.471Z,22.76
2016-11-19T05:48:53.404Z,22.78
2016-11-19T05:49:53.344Z,22.75
2016-11-19T05:50:53.290Z,22.76
2016-11-19T05:51:53.220Z,22.75
2016-11-19T05:52:53.159Z,22.76
2016-11-19T05:53:53.098Z,22.72
2016-11-19T05:54:53.036Z,22.73
2016-11-19T05:55:52.970Z,22.7
2016-11-19T05:56:52.931Z,22.8
2016-11-19T05:57:52.849Z,22.8
2016-11-19T05:58:52.788Z,22.73
2016-11-19T05:59:52.726Z,22.81
2016-11-19T06:00:52.665Z,22.76
2016-11-19T06:01:52.610Z,22.73
2016-11-19T06:02:52.542Z,22.76
2016-11-19T06:03:52.481Z,22.75
2016-11-19T06:04:52.417Z,22.75
2016-11-19T06:05:52.359Z,22.7
2016-11-19T06:06:52.296Z,22.76
2016-11-19T06:07:52.230Z,22.72
2016-11-19T06:08:52.173Z,22.68
2016-11-19T06:09:52.108Z,22.76
2016-11-19T06:10:52.046Z,22.75
2016-11-19T06:11:51.989Z,22.7
2016-11-19T06:12:52.126Z,22.75
2016-11-19T06:13:51.867Z,22.7
2016-11-19T06:14:51.801Z,22.73
2016-11-19T06:15:51.737Z,22.72
2016-11-19T06:16:51.998Z,22.73
2016-11-19T06:17:51.611Z,22.73
2016-11-19T06:18:51.550Z,22.75
2016-11-19T06:19:51.495Z,22.7
2016-11-19T06:20:51.433Z,22.69
2016-11-19T06:21:51.368Z,22.62
2016-11-19T06:22:51.310Z,22.65
2016-11-19T06:23:51.246Z,22.75
2016-11-19T06:24:51.181Z,22.7
2016-11-19T06:25:51.119Z,22.76
2016-11-19T06:26:51.385Z,22.73
2016-11-19T06:27:51.001Z,22.72
2016-11-19T06:28:50.939Z,22.73
2016-11-19T06:29:50.874Z,22.72
2016-11-19T06:30:50.814Z,22.73
2016-11-19T06:31:50.752Z,22.7
2016-11-19T06:32:50.689Z,22.7
2016-11-19T06:33:50.628Z,22.72
2016-11-19T06:34:50.607Z,22.72
2016-11-19T06:35:50.508Z,22.72
2016-11-19T06:36:50.443Z,22.72
2016-11-19T06:37:50.381Z,22.72
2016-11-19T06:38:50.320Z,22.68
2016-11-19T06:39:50.262Z,22.68
2016-11-19T06:40:50.194Z,22.75
2016-11-19T06:41:50.134Z,22.66
2016-11-19T06:42:50.077Z,22.73
2016-11-19T06:43:50.014Z,22.69
2016-11-19T06:44:49.948Z,22.72
2016-11-19T06:45:49.889Z,22.62
2016-11-19T06:46:49.827Z,22.65
2016-11-19T06:47:49.770Z,22.73
2016-11-19T06:48:49.741Z,22.68
2016-11-19T06:49:49.643Z,22.7
2016-11-19T06:50:49.579Z,22.69
2016-11-19T06:51:49.516Z,22.72
2016-11-19T06:52:49.464Z,22.73
2016-11-19T06:53:49.401Z,22.66
2016-11-19T06:54:49.367Z,22.66
2016-11-19T06:55:49.274Z,22.68
2016-11-19T06:56:49.209Z,22.7
2016-11-19T06:57:49.148Z,22.76
2016-11-19T06:58:49.088Z,22.63
2016-11-19T06:59:49.024Z,22.68
2016-11-19T07:00:48.966Z,22.63
2016-11-19T07:01:48.902Z,22.62
2016-11-19T07:02:48.839Z,22.62
2016-11-19T07:03:48.780Z,22.62
2016-11-19T07:04:48.731Z,22.7
2016-11-19T07:05:48.653Z,22.65
2016-11-19T07:06:48.598Z,22.66
2016-11-19T07:07:48.535Z,22.63
2016-11-19T07:08:48.470Z,22.6
2016-11-19T07:09:48.409Z,22.63
2016-11-19T07:10:48.345Z,22.6
2016-11-19T07:11:48.287Z,22.63
2016-11-19T07:12:48.224Z,22.66
2016-11-19T07:13:48.162Z,22.62
2016-11-19T07:14:48.099Z,22.75
2016-11-19T07:15:48.067Z,22.59
2016-11-19T07:16:47.976Z,22.73
2016-11-19T07:17:47.917Z,22.62
2016-11-19T07:18:47.856Z,22.66
2016-11-19T07:19:47.793Z,22.7
2016-11-19T07:20:47.732Z,22.68
2016-11-19T07:21:47.670Z,22.66
2016-11-19T07:22:47.607Z,22.7
2016-11-19T07:23:47.547Z,22.7
2016-11-19T07:24:47.485Z,22.68
2016-11-19T07:25:47.423Z,22.6
2016-11-19T07:26:47.361Z,22.57
2016-11-19T07:27:47.299Z,22.59
2016-11-19T07:28:47.240Z,22.7
2016-11-19T07:29:47.177Z,22.59
2016-11-19T07:30:47.147Z,22.65
2016-11-19T07:31:47.053Z,22.66
2016-11-19T07:32:46.993Z,22.63
2016-11-19T07:33:46.930Z,22.62
2016-11-19T07:34:46.866Z,22.65
2016-11-19T07:35:46.820Z,22.65
2016-11-19T07:36:46.748Z,22.7
2016-11-19T07:37:46.688Z,22.68
2016-11-19T07:38:46.622Z,22.68
2016-11-19T07:39:46.564Z,22.62
2016-11-19T07:40:46.501Z,22.66
2016-11-19T07:41:46.440Z,22.68
2016-11-19T07:42:46.377Z,22.66
2016-11-19T07:43:46.315Z,22.62
2016-11-19T07:44:46.252Z,22.62
2016-11-19T07:45:46.189Z,22.62
2016-11-19T07:46:46.131Z,22.6
2016-11-19T07:47:46.068Z,22.62
2016-11-19T07:48:46.007Z,22.68
2016-11-19T07:49:45.949Z,22.63
2016-11-19T07:50:45.882Z,22.68
2016-11-19T07:51:45.818Z,22.57
2016-11-19T07:52:45.765Z,22.73
2016-11-19T07:53:45.702Z,22.63
2016-11-19T07:54:45.636Z,22.69
2016-11-19T07:55:45.573Z,22.65
2016-11-19T07:56:45.510Z,22.62
2016-11-19T07:57:45.452Z,22.63
2016-11-19T07:58:45.390Z,22.66
2016-11-19T07:59:45.328Z,22.69
2016-11-19T08:00:45.268Z,22.68
2016-11-19T08:01:45.207Z,22.72
2016-11-19T08:02:45.147Z,22.6
2016-11-19T08:03:45.080Z,22.69
2016-11-19T08:04:45.021Z,22.59
2016-11-19T08:05:44.963Z,22.66
2016-11-19T08:06:44.896Z,22.54
2016-11-19T08:07:44.838Z,22.59
2016-11-19T08:08:44.773Z,22.68
2016-11-19T08:09:44.709Z,22.51
2016-11-19T08:10:44.652Z,22.59
2016-11-19T08:11:44.589Z,22.68
2016-11-19T08:12:44.534Z,22.6
2016-11-19T08:13:44.469Z,22.54
2016-11-19T08:14:44.404Z,22.63
2016-11-19T08:15:44.348Z,22.57
2016-11-19T08:16:44.278Z,22.57
2016-11-19T08:17:44.222Z,22.6
2016-11-19T08:18:44.161Z,22.65
2016-11-19T08:19:44.094Z,22.66
2016-11-19T08:20:44.037Z,22.69
2016-11-19T08:21:44.004Z,22.6
2016-11-19T08:22:45.114Z,22.66
2016-11-19T08:23:43.849Z,22.59
2016-11-19T08:24:43.811Z,22.62
2016-11-19T08:25:43.729Z,22.63
2016-11-19T08:26:43.665Z,22.57
2016-11-19T08:27:43.610Z,22.55
2016-11-19T08:28:43.541Z,22.68
2016-11-19T08:29:43.488Z,22.66
2016-11-19T08:30:43.420Z,22.62
2016-11-19T08:31:43.353Z,22.57
2016-11-19T08:32:43.299Z,22.68
2016-11-19T08:33:43.235Z,22.66
2016-11-19T08:34:43.371Z,22.59
2016-11-19T08:35:43.114Z,22.54
2016-11-19T08:36:43.046Z,22.6
2016-11-19T08:37:43.011Z,22.62
2016-11-19T08:38:42.926Z,22.57
2016-11-19T08:39:42.864Z,22.66
2016-11-19T08:40:42.802Z,22.55
2016-11-19T08:41:42.740Z,22.59
2016-11-19T08:42:42.678Z,22.57
2016-11-19T08:43:42.615Z,22.55
2016-11-19T08:44:42.556Z,22.53
2016-11-19T08:45:42.493Z,22.6
2016-11-19T08:46:42.430Z,22.57
2016-11-19T08:47:42.372Z,22.6
2016-11-19T08:48:42.308Z,22.55
2016-11-19T08:49:42.245Z,22.6
2016-11-19T08:50:42.190Z,22.6
2016-11-19T08:51:42.447Z,22.6
2016-11-19T08:52:42.090Z,22.59
2016-11-19T08:53:42.001Z,22.6
2016-11-19T08:54:41.937Z,22.54
2016-11-19T08:55:41.877Z,22.54
2016-11-19T08:56:41.816Z,22.6
2016-11-19T08:57:41.757Z,22.6
2016-11-19T08:58:41.692Z,22.57
2016-11-19T08:59:41.630Z,22.6
2016-11-19T09:00:41.568Z,22.62
2016-11-19T09:01:41.537Z,22.62
2016-11-19T09:02:41.440Z,22.6
2016-11-19T09:03:41.383Z,22.59
2016-11-19T09:04:41.323Z,22.57
2016-11-19T09:05:41.259Z,22.54
2016-11-19T09:06:41.198Z,22.55
2016-11-19T09:07:41.134Z,22.57
2016-11-19T09:08:41.074Z,22.59
2016-11-19T09:09:41.011Z,22.55
2016-11-19T09:10:40.949Z,22.54
2016-11-19T09:11:40.891Z,22.57
2016-11-19T09:12:40.832Z,22.63
2016-11-19T09:13:40.763Z,22.6
2016-11-19T09:14:40.703Z,22.55
2016-11-19T09:15:40.643Z,22.57
2016-11-19T09:16:40.581Z,22.59
2016-11-19T09:17:40.543Z,22.57
2016-11-19T09:18:40.458Z,22.55
2016-11-19T09:19:40.394Z,22.6
2016-11-19T09:20:40.336Z,22.57
2016-11-19T09:21:40.270Z,22.55
2016-11-19T09:22:40.225Z,22.55
2016-11-19T09:23:40.148Z,22.62
2016-11-19T09:24:40.086Z,22.59
2016-11-19T09:25:40.024Z,22.57
2016-11-19T09:26:39.967Z,22.57
2016-11-19T09:27:39.903Z,22.55
2016-11-19T09:28:39.840Z,22.57
2016-11-19T09:29:40.106Z,22.59
2016-11-19T09:30:39.717Z,22.53
2016-11-19T09:31:39.655Z,22.62
2016-11-19T09:32:39.595Z,22.57
2016-11-19T09:33:39.533Z,22.54
2016-11-19T09:34:39.467Z,22.6
2016-11-19T09:35:39.417Z,22.53
2016-11-19T09:36:39.345Z,22.57
2016-11-19T09:37:39.291Z,22.57
2016-11-19T09:38:39.225Z,22.57
2016-11-19T09:39:39.163Z,22.55
2016-11-19T09:40:39.096Z,22.62
2016-11-19T09:41:39.041Z,22.59
2016-11-19T09:42:38.975Z,22.59
2016-11-19T09:43:38.911Z,22.59
2016-11-19T09:44:38.852Z,22.62
2016-11-19T09:45:39.111Z,22.53
2016-11-19T09:46:38.728Z,22.53
2016-11-19T09:47:38.675Z,22.55
2016-11-19T09:48:38.600Z,22.53
2016-11-19T09:49:38.543Z,22.59
2016-11-19T09:50:38.481Z,22.54
2016-11-19T09:51:38.417Z,22.62
2016-11-19T09:52:38.355Z,22.51
2016-11-19T09:53:38.296Z,22.55
2016-11-19T09:54:38.234Z,22.57
2016-11-19T09:55:38.169Z,22.55
2016-11-19T09:56:38.106Z,22.57
2016-11-19T09:57:38.250Z,22.55
2016-11-19T09:58:37.992Z,22.59
2016-11-19T09:59:37.924Z,22.57
2016-11-19T10:00:37.861Z,22.54
2016-11-19T10:01:37.800Z,22.59
2016-11-19T10:02:37.738Z,22.62
2016-11-19T10:03:37.675Z,22.6
2016-11-19T10:04:37.614Z,22.57
2016-11-19T10:05:37.552Z,22.53
2016-11-19T10:06:37.493Z,22.54
2016-11-19T10:07:37.429Z,22.59
2016-11-19T10:08:37.368Z,22.59
2016-11-19T10:09:37.308Z,22.59
2016-11-19T10:10:37.245Z,22.51
2016-11-19T10:11:37.190Z,22.6
2016-11-19T10:12:37.118Z,22.53
2016-11-19T10:13:37.060Z,22.59
2016-11-19T10:14:36.995Z,22.57
2016-11-19T10:15:36.933Z,22.59
2016-11-19T10:16:36.869Z,22.54
2016-11-19T10:17:36.809Z,22.54
2016-11-19T10:18:36.747Z,22.57
2016-11-19T10:19:36.684Z,22.54
2016-11-19T10:20:36.630Z,22.59
2016-11-19T10:21:36.561Z,22.53
2016-11-19T10:22:36.785Z,22.57
2016-11-19T10:23:36.441Z,22.57
2016-11-19T10:24:36.379Z,22.59
2016-11-19T10:25:36.326Z,22.51
2016-11-19T10:26:36.255Z,22.54
2016-11-19T10:27:36.194Z,22.59
2016-11-19T10:28:36.128Z,22.51
2016-11-19T10:29:36.089Z,22.57
2016-11-19T10:30:36.006Z,22.57
2016-11-19T10:31:35.941Z,22.54
2016-11-19T10:32:36.208Z,22.57
2016-11-19T10:33:35.822Z,22.53
2016-11-19T10:34:36.079Z,22.57
2016-11-19T10:35:35.700Z,22.62
2016-11-19T10:36:35.640Z,22.6
2016-11-19T10:37:35.569Z,22.57
2016-11-19T10:38:35.514Z,22.53
2016-11-19T10:39:35.774Z,22.57
2016-11-19T10:40:35.389Z,22.57
2016-11-19T10:41:35.323Z,22.57
2016-11-19T10:42:35.298Z,22.54
2016-11-19T10:43:35.205Z,22.57
2016-11-19T10:44:35.143Z,22.62
2016-11-19T10:45:35.095Z,22.55
2016-11-19T10:46:35.014Z,22.48
2016-11-19T10:47:34.992Z,22.48
2016-11-19T10:48:34.896Z,22.57
2016-11-19T10:49:34.833Z,22.48
2016-11-19T10:50:34.772Z,22.6
2016-11-19T10:51:34.709Z,22.54
2016-11-19T10:52:34.649Z,22.57
2016-11-19T10:53:34.587Z,22.59
2016-11-19T10:54:34.519Z,22.59
2016-11-19T10:55:34.462Z,22.51
2016-11-19T10:56:34.406Z,22.62
2016-11-19T10:57:34.337Z,22.57
2016-11-19T10:58:34.276Z,22.5
2016-11-19T10:59:34.215Z,22.51
2016-11-19T11:00:34.156Z,22.51
2016-11-19T11:01:34.089Z,22.51
2016-11-19T11:02:34.028Z,22.53
2016-11-19T11:03:33.962Z,22.54
2016-11-19T11:04:33.904Z,22.55
2016-11-19T11:05:33.845Z,22.57
2016-11-19T11:06:33.781Z,22.57
2016-11-19T11:07:33.721Z,22.57
2016-11-19T11:08:33.656Z,22.48
2016-11-19T11:09:33.595Z,22.57
2016-11-19T11:10:33.530Z,22.54
2016-11-19T11:11:33.470Z,22.59
2016-11-19T11:12:33.408Z,22.59
2016-11-19T11:13:33.380Z,22.5
2016-11-19T11:14:33.293Z,22.48
2016-11-19T11:15:33.225Z,22.59
2016-11-19T11:16:33.204Z,22.6
2016-11-19T11:17:33.103Z,22.54
2016-11-19T11:18:33.040Z,22.51
2016-11-19T11:19:32.995Z,22.6
2016-11-19T11:20:32.913Z,22.51
2016-11-19T11:21:32.851Z,22.51
2016-11-19T11:22:32.794Z,22.59
2016-11-19T11:23:32.728Z,22.47
2016-11-19T11:24:32.667Z,22.45
2016-11-19T11:25:33.054Z,22.57
2016-11-19T11:26:32.546Z,22.47
2016-11-19T11:27:32.804Z,22.55
2016-11-19T11:28:32.421Z,22.55
2016-11-19T11:29:32.356Z,22.5
2016-11-19T11:30:32.345Z,22.53
2016-11-19T11:31:32.236Z,22.54
2016-11-19T11:32:32.170Z,22.55
2016-11-19T11:33:32.116Z,22.59
2016-11-19T11:34:32.049Z,22.54
2016-11-19T11:35:31.990Z,22.57
2016-11-19T11:36:31.931Z,22.57
2016-11-19T11:37:31.864Z,22.51
2016-11-19T11:38:31.798Z,22.47
2016-11-19T11:39:31.742Z,22.54
2016-11-19T11:40:31.679Z,22.5
2016-11-19T11:41:31.618Z,22.55
2016-11-19T11:42:31.560Z,22.57
2016-11-19T11:43:31.496Z,22.48
2016-11-19T11:44:31.430Z,22.59
2016-11-19T11:45:31.372Z,22.51
2016-11-19T11:46:31.304Z,22.43
2016-11-19T11:47:31.247Z,22.57
2016-11-19T11:48:31.209Z,22.5
2016-11-19T11:49:31.117Z,22.54
2016-11-19T11:50:31.100Z,22.48
2016-11-19T11:51:30.998Z,22.48
2016-11-19T11:52:30.941Z,22.47
2016-11-19T11:53:30.879Z,22.6
2016-11-19T11:54:30.814Z,22.54
2016-11-19T11:55:30.751Z,22.51
2016-11-19T11:56:30.688Z,22.5
2016-11-19T11:57:30.631Z,22.54
2016-11-19T11:58:30.563Z,22.48
2016-11-19T11:59:30.502Z,22.51
2016-11-19T12:00:30.439Z,22.55
2016-11-19T12:01:30.379Z,22.53
2016-11-19T12:02:30.316Z,22.45
2016-11-19T12:03:30.457Z,22.51
2016-11-19T12:04:30.195Z,22.5
2016-11-19T12:05:30.132Z,22.6
2016-11-19T12:06:30.073Z,22.55
2016-11-19T12:07:30.009Z,22.54
2016-11-19T12:08:29.948Z,22.48
2016-11-19T12:09:29.882Z,22.53
2016-11-19T12:10:29.832Z,22.48
2016-11-19T12:11:29.762Z,22.54
2016-11-19T12:12:29.699Z,22.57
2016-11-19T12:13:29.640Z,22.57
2016-11-19T12:14:29.576Z,22.6
2016-11-19T12:15:29.514Z,22.57
2016-11-19T12:16:29.455Z,22.6
2016-11-19T12:17:29.394Z,22.54
2016-11-19T12:18:29.330Z,22.43
2016-11-19T12:19:29.266Z,22.5
2016-11-19T12:20:29.209Z,22.51
2016-11-19T12:21:29.144Z,22.53
2016-11-19T12:22:29.085Z,22.59
2016-11-19T12:23:29.021Z,22.55
2016-11-19T12:24:29.163Z,22.54
2016-11-19T12:25:28.898Z,22.59
2016-11-19T12:26:28.835Z,22.54
2016-11-19T12:27:28.770Z,22.51
2016-11-19T12:28:28.710Z,22.59
2016-11-19T12:29:28.648Z,22.59
2016-11-19T12:30:28.588Z,22.53
2016-11-19T12:31:28.527Z,22.51
2016-11-19T12:32:28.465Z,22.62
2016-11-19T12:33:28.406Z,22.53
2016-11-19T12:34:28.342Z,22.53
2016-11-19T12:35:28.276Z,22.51
2016-11-19T12:36:28.221Z,22.44
2016-11-19T12:37:28.160Z,22.44
2016-11-19T12:38:28.099Z,22.55
2016-11-19T12:39:28.032Z,22.53
2016-11-19T12:40:27.969Z,22.55
2016-11-19T12:41:27.905Z,22.54
2016-11-19T12:42:28.048Z,22.54
2016-11-19T12:43:27.785Z,22.59
2016-11-19T12:44:27.725Z,22.44
2016-11-19T12:45:27.662Z,22.45
2016-11-19T12:46:27.602Z,22.51
2016-11-19T12:47:27.539Z,22.54
2016-11-19T12:48:27.480Z,22.53
2016-11-19T12:49:27.416Z,22.5
2016-11-19T12:50:27.356Z,22.54
2016-11-19T12:51:27.288Z,22.47
2016-11-19T12:52:27.229Z,22.5
2016-11-19T12:53:27.167Z,22.6
2016-11-19T12:54:27.130Z,22.43
2016-11-19T12:55:27.048Z,22.47
2016-11-19T12:56:26.979Z,22.47